Time;durP1;ratioP1;P1;durP2;ratioP2;P2;SDS_P1;SDS_P2;PMS_P1;PMS_P2;Temp;Humidity;BMP_temperature;BMP_pressure;BME280_temperature;BME280_humidity;BME280_pressure;Samples;Min_cycle;Max_cycle;Signal;HPM_P1;HPM_P2
2021/04/15 00:00:56;;;;;;;7.85;4.50;;;9.90;43.70;;;;;;5030849;28;20029;-70
2021/04/15 00:03:31;;;;;;;9.20;4.90;;;9.90;43.70;;;;;;5030408;28;20022;-71
2021/04/15 00:06:11;;;;;;;9.43;4.78;;;9.90;43.90;;;;;;5030782;28;20048;-71
2021/04/15 00:08:36;;;;;;;9.85;4.70;;;9.90;43.60;;;;;;5029114;28;20033;-71
2021/04/15 00:11:03;;;;;;;10.25;4.72;;;9.90;43.80;;;;;;5031221;28;20528;-71
2021/04/15 00:13:38;;;;;;;11.15;5.05;;;9.90;43.70;;;;;;5030485;28;20067;-70
2021/04/15 00:16:05;;;;;;;8.02;4.65;;;9.80;43.50;;;;;;5030066;28;20037;-70
2021/04/15 00:18:32;;;;;;;8.30;4.60;;;9.80;43.70;;;;;;5029891;28;20549;-71
2021/04/15 00:20:58;;;;;;;8.20;4.70;;;9.80;43.80;;;;;;5034305;28;20488;-71
2021/04/15 00:23:25;;;;;;;9.60;4.55;;;9.80;43.70;;;;;;5033719;28;20039;-70
2021/04/15 00:25:51;;;;;;;8.93;4.30;;;9.70;43.60;;;;;;5034243;28;20113;-71
2021/04/15 00:28:17;;;;;;;8.23;4.60;;;9.80;43.40;;;;;;5033982;28;20040;-70
2021/04/15 00:30:43;;;;;;;8.13;4.22;;;9.80;43.50;;;;;;5033927;28;20037;-71
2021/04/15 00:33:10;;;;;;;7.57;3.83;;;9.70;43.50;;;;;;5034150;28;20033;-70
2021/04/15 00:35:38;;;;;;;9.15;4.45;;;9.70;43.30;;;;;;5028761;28;20029;-70
2021/04/15 00:38:05;;;;;;;9.13;4.30;;;9.70;43.20;;;;;;5034145;28;20052;-70
2021/04/15 00:40:32;;;;;;;7.72;3.72;;;9.70;43.40;;;;;;5033691;28;20382;-70
2021/04/15 00:42:58;;;;;;;7.68;3.95;;;9.60;43.20;;;;;;5034314;28;20366;-71
2021/04/15 00:45:31;;;;;;;8.70;3.95;;;9.60;43.40;;;;;;5032229;28;20075;-71
2021/04/15 00:48:02;;;;;;;6.40;3.78;;;9.60;43.40;;;;;;5033903;28;20029;-71
2021/04/15 00:50:34;;;;;;;8.10;3.97;;;9.60;43.40;;;;;;5032232;28;20021;-71
2021/04/15 00:53:04;;;;;;;8.95;3.90;;;9.50;43.50;;;;;;5033505;28;20096;-71
2021/04/15 00:55:32;;;;;;;8.97;3.83;;;9.50;43.60;;;;;;5032333;28;20036;-71
2021/04/15 00:58:00;;;;;;;8.18;3.80;;;9.50;43.70;;;;;;5033261;28;20393;-71
2021/04/15 01:00:29;;;;;;;8.73;3.92;;;9.50;43.70;;;;;;5033479;28;20049;-71
2021/04/15 01:02:56;;;;;;;8.13;3.60;;;9.50;43.50;;;;;;5033307;28;20071;-71
2021/04/15 01:05:33;;;;;;;8.23;3.83;;;9.40;43.50;;;;;;5032138;28;20421;-71
2021/04/15 01:07:59;;;;;;;8.18;3.60;;;9.40;43.60;;;;;;5033146;28;20018;-71
2021/04/15 01:10:28;;;;;;;8.15;3.88;;;9.40;43.50;;;;;;5033295;28;20018;-70
2021/04/15 01:13:05;;;;;;;9.07;3.90;;;9.40;43.70;;;;;;5031953;28;20524;-71
2021/04/15 01:15:40;;;;;;;7.45;3.72;;;9.40;43.80;;;;;;5031693;28;20199;-71
2021/04/15 01:18:19;;;;;;;8.18;3.83;;;9.40;43.70;;;;;;5031867;28;20489;-71
2021/04/15 01:20:55;;;;;;;7.15;3.45;;;9.30;43.70;;;;;;5031498;28;20025;-71
2021/04/15 01:23:45;;;;;;;7.88;3.60;;;9.30;44.00;;;;;;5033006;28;20104;-70
2021/04/15 01:26:29;;;;;;;7.45;3.53;;;9.30;43.90;;;;;;5032219;28;20078;-70
2021/04/15 01:29:11;;;;;;;7.13;3.40;;;9.30;43.90;;;;;;5031727;28;20489;-71
2021/04/15 01:31:56;;;;;;;7.57;3.33;;;9.30;43.90;;;;;;5033218;28;20056;-70
2021/04/15 01:34:37;;;;;;;7.93;3.47;;;9.30;43.90;;;;;;5018865;28;20026;-71
2021/04/15 01:37:07;;;;;;;6.80;3.63;;;9.20;44.00;;;;;;5026528;28;20397;-70
2021/04/15 01:39:41;;;;;;;8.13;3.30;;;9.20;44.10;;;;;;5031572;28;20067;-71
2021/04/15 01:42:29;;;;;;;8.82;3.40;;;9.10;44.20;;;;;;5032779;28;20092;-71
2021/04/15 01:45:01;;;;;;;9.43;3.45;;;9.10;44.40;;;;;;5031548;28;20053;-71
2021/04/15 01:47:37;;;;;;;8.32;3.65;;;9.10;44.40;;;;;;5032383;28;20029;-71
2021/04/15 01:50:15;;;;;;;8.57;3.50;;;9.10;44.30;;;;;;5032583;28;20066;-71
2021/04/15 01:52:43;;;;;;;7.13;3.55;;;9.10;44.30;;;;;;5031003;28;20020;-71
2021/04/15 01:55:20;;;;;;;9.63;3.67;;;9.10;44.30;;;;;;5031400;28;20493;-71
2021/04/15 01:58:25;;;;;;;7.80;3.08;;;9.10;44.20;;;;;;5011098;28;20030;-72
2021/04/15 02:01:01;;;;;;;8.38;3.05;;;9.10;44.40;;;;;;5027460;28;20084;-71
2021/04/15 02:03:31;;;;;;;6.80;3.20;;;9.10;44.50;;;;;;5032120;28;20108;-71
2021/04/15 02:06:06;;;;;;;8.60;3.20;;;9.00;44.40;;;;;;5032096;28;20065;-71
2021/04/15 02:08:34;;;;;;;5.90;3.00;;;9.10;44.60;;;;;;5032275;28;20271;-71
2021/04/15 02:11:39;;;;;;;8.93;3.42;;;9.00;44.60;;;;;;5030927;28;20048;-70
2021/04/15 02:14:08;;;;;;;7.18;3.03;;;9.00;44.60;;;;;;5013462;28;20084;-70
2021/04/15 02:16:36;;;;;;;7.10;3.25;;;9.00;44.80;;;;;;5029226;28;20386;-71
2021/04/15 02:19:09;;;;;;;7.10;3.03;;;8.90;44.80;;;;;;5012966;28;20014;-71
2021/04/15 02:21:48;;;;;;;7.18;2.95;;;8.90;44.90;;;;;;5012518;28;20061;-70
2021/04/15 02:24:28;;;;;;;7.38;3.20;;;8.90;45.00;;;;;;5029596;28;20036;-70
2021/04/15 02:27:24;;;;;;;8.73;3.10;;;8.90;45.10;;;;;;5013188;28;20038;-70
2021/04/15 02:29:53;;;;;;;7.18;3.22;;;8.90;45.20;;;;;;4989852;28;20026;-70
2021/04/15 02:32:32;;;;;;;7.70;3.10;;;8.80;45.30;;;;;;4990111;28;20495;-70
2021/04/15 02:35:17;;;;;;;7.50;3.13;;;8.80;45.50;;;;;;4989700;28;20696;-70
2021/04/15 02:37:49;;;;;;;7.38;3.20;;;8.80;45.60;;;;;;4990016;28;20129;-70
2021/04/15 02:40:19;;;;;;;8.27;2.95;;;8.70;45.70;;;;;;4974051;28;20038;-70
2021/04/15 02:42:46;;;;;;;6.47;2.90;;;8.70;45.60;;;;;;4973169;28;20042;-71
2021/04/15 02:48:23;;;;;;;6.03;2.97;;;8.80;45.90;;;;;;4971017;28;20457;-71
2021/04/15 02:50:52;;;;;;;6.80;2.75;;;8.70;46.00;;;;;;5005456;28;20035;-70
2021/04/15 02:53:24;;;;;;;7.20;3.10;;;8.70;46.10;;;;;;4993007;28;20034;-71
2021/04/15 02:55:54;;;;;;;7.82;2.90;;;8.70;46.20;;;;;;5008713;28;20022;-71
2021/04/15 02:58:28;;;;;;;6.03;3.05;;;8.60;46.20;;;;;;4986918;28;20592;-71
2021/04/15 03:00:55;;;;;;;6.85;3.17;;;8.60;46.40;;;;;;5007480;28;20030;-70
2021/04/15 03:03:32;;;;;;;4.75;2.58;;;8.60;46.40;;;;;;5007729;28;20061;-71
2021/04/15 03:06:04;;;;;;;5.82;2.58;;;8.60;46.70;;;;;;5008206;28;20466;-70
2021/04/15 03:08:30;;;;;;;8.80;3.13;;;8.50;46.70;;;;;;5014730;28;20051;-70
2021/04/15 03:11:01;;;;;;;6.82;2.75;;;8.60;46.70;;;;;;5020917;28;20101;-70
2021/04/15 03:13:40;;;;;;;6.78;3.00;;;8.50;46.70;;;;;;5009582;28;20434;-70
2021/04/15 03:16:06;;;;;;;7.43;3.08;;;8.60;46.80;;;;;;5010970;28;20060;-70
2021/04/15 03:18:41;;;;;;;6.80;2.78;;;8.50;47.10;;;;;;5024792;28;20018;-71
2021/04/15 03:21:18;;;;;;;7.35;3.00;;;8.50;47.10;;;;;;5011354;28;20029;-70
2021/04/15 03:23:50;;;;;;;7.20;3.10;;;8.40;47.20;;;;;;5011243;28;20041;-71
2021/04/15 03:26:42;;;;;;;8.35;2.90;;;8.30;47.50;;;;;;5020549;28;20092;-70
2021/04/15 03:29:19;;;;;;;6.95;2.70;;;8.30;48.60;;;;;;5017539;28;20430;-71
2021/04/15 03:31:53;;;;;;;7.30;2.88;;;8.30;47.80;;;;;;5030748;28;20036;-71
2021/04/15 03:34:35;;;;;;;6.97;3.10;;;8.30;47.80;;;;;;5030496;28;20156;-70
2021/04/15 03:37:03;;;;;;;7.72;3.03;;;8.30;47.80;;;;;;5011150;28;20026;-71
2021/04/15 03:39:34;;;;;;;7.75;3.17;;;8.30;48.00;;;;;;5010922;28;20014;-71
2021/04/15 03:42:24;;;;;;;7.85;2.90;;;8.30;48.00;;;;;;5011291;28;20054;-71
2021/04/15 03:44:55;;;;;;;8.90;2.75;;;8.20;48.00;;;;;;5019627;28;20033;-70
2021/04/15 03:47:31;;;;;;;9.30;2.90;;;8.20;48.20;;;;;;5029093;28;20180;-70
2021/04/15 03:50:06;;;;;;;6.57;2.60;;;8.20;48.20;;;;;;5030616;28;20022;-71
2021/04/15 03:52:42;;;;;;;6.15;2.60;;;8.20;48.20;;;;;;5029470;28;20398;-71
2021/04/15 03:55:21;;;;;;;6.50;2.60;;;8.20;48.20;;;;;;5033587;28;20033;-71
2021/04/15 03:57:50;;;;;;;7.70;2.88;;;8.10;48.40;;;;;;5022800;28;20025;-71
2021/04/15 04:00:24;;;;;;;5.43;2.70;;;8.10;48.50;;;;;;5034631;28;20116;-71
2021/04/15 04:03:01;;;;;;;7.57;2.65;;;8.10;48.40;;;;;;5034425;28;20048;-71
2021/04/15 04:05:34;;;;;;;7.22;2.67;;;8.10;48.60;;;;;;5034597;28;20025;-71
2021/04/15 04:08:02;;;;;;;6.18;2.65;;;8.10;48.60;;;;;;5034547;28;20028;-71
2021/04/15 04:10:34;;;;;;;7.47;2.70;;;8.10;48.60;;;;;;5024195;28;20383;-71
2021/04/15 04:13:29;;;;;;;7.00;2.80;;;8.00;48.80;;;;;;5030496;28;20021;-71
2021/04/15 04:16:04;;;;;;;8.75;2.58;;;7.90;49.00;;;;;;5033922;28;20053;-70
2021/04/15 04:18:55;;;;;;;6.88;2.63;;;7.80;49.10;;;;;;5034308;28;20091;-71
2021/04/15 04:21:48;;;;;;;6.28;2.50;;;7.80;49.50;;;;;;5032883;28;20025;-71
2021/04/15 04:24:34;;;;;;;6.00;2.50;;;7.70;49.60;;;;;;5033101;28;20030;-71
2021/04/15 04:27:11;;;;;;;7.35;2.90;;;7.80;49.70;;;;;;5033082;28;20104;-71
2021/04/15 04:29:51;;;;;;;6.80;2.53;;;7.70;49.70;;;;;;5032768;28;20068;-71
2021/04/15 04:32:21;;;;;;;4.93;2.33;;;7.70;50.50;;;;;;5034320;28;20493;-70
2021/04/15 04:34:52;;;;;;;6.55;2.70;;;7.80;49.70;;;;;;5031391;28;20029;-70
2021/04/15 04:37:19;;;;;;;8.60;2.75;;;7.70;49.90;;;;;;5019942;28;20036;-70
2021/04/15 04:39:45;;;;;;;7.85;2.80;;;7.70;49.70;;;;;;5033868;28;20053;-71
2021/04/15 04:42:32;;;;;;;5.82;2.50;;;7.80;49.70;;;;;;5034229;28;20057;-71
2021/04/15 04:44:59;;;;;;;7.63;3.00;;;7.70;49.80;;;;;;5033747;28;20084;-71
2021/04/15 04:47:55;;;;;;;7.03;2.85;;;7.70;50.10;;;;;;5033701;28;20030;-71
2021/04/15 04:50:33;;;;;;;6.45;2.58;;;7.70;50.10;;;;;;5033716;28;20108;-71
2021/04/15 04:53:05;;;;;;;7.97;2.90;;;7.70;50.00;;;;;;5032525;28;20083;-71
2021/04/15 04:55:40;;;;;;;7.82;2.60;;;7.70;50.00;;;;;;5033386;28;20023;-71
2021/04/15 04:58:13;;;;;;;7.28;2.47;;;7.70;50.00;;;;;;5033614;28;20037;-71
2021/04/15 05:00:45;;;;;;;8.50;2.72;;;7.60;50.00;;;;;;5033004;28;20108;-71
2021/04/15 05:03:16;;;;;;;5.78;2.35;;;7.60;50.00;;;;;;5032543;28;20025;-71
2021/04/15 05:05:41;;;;;;;7.70;2.63;;;7.70;50.00;;;;;;5032819;28;20072;-71
2021/04/15 05:08:24;;;;;;;6.53;2.60;;;7.70;49.90;;;;;;5033080;28;20053;-71
2021/04/15 05:10:54;;;;;;;5.85;2.35;;;7.70;50.00;;;;;;5021191;28;20714;-71
2021/04/15 05:13:27;;;;;;;6.00;2.33;;;7.70;49.90;;;;;;5031893;28;20025;-71
2021/04/15 05:15:54;;;;;;;5.78;2.65;;;7.70;50.00;;;;;;5024765;28;20514;-71
2021/04/15 05:18:21;;;;;;;7.88;2.67;;;7.70;50.00;;;;;;5022233;28;20482;-71
2021/04/15 05:20:49;;;;;;;7.72;2.45;;;7.70;50.10;;;;;;5019209;28;20589;-71
2021/04/15 05:23:40;;;;;;;7.28;2.67;;;7.70;50.10;;;;;;5020336;28;20033;-71
2021/04/15 05:26:20;;;;;;;9.10;3.20;;;7.60;50.20;;;;;;5032369;28;20637;-71
2021/04/15 05:28:48;;;;;;;11.45;5.28;;;7.60;50.40;;;;;;5024745;28;20393;-71
2021/04/15 05:31:18;;;;;;;9.32;3.88;;;7.70;50.80;;;;;;5028200;28;20497;-71
2021/04/15 05:33:45;;;;;;;8.05;3.20;;;7.80;50.40;;;;;;5010203;28;20034;-71
2021/04/15 05:36:23;;;;;;;7.25;2.92;;;7.80;50.40;;;;;;4992360;28;20539;-70
2021/04/15 05:38:52;;;;;;;7.72;2.95;;;7.90;50.10;;;;;;5010726;28;20041;-70
2021/04/15 05:41:40;;;;;;;5.55;2.53;;;7.90;50.30;;;;;;5012055;28;20406;-71
2021/04/15 05:44:13;;;;;;;7.28;2.72;;;7.90;49.80;;;;;;5012593;28;20030;-71
2021/04/15 05:46:46;;;;;;;6.60;2.30;;;8.00;49.70;;;;;;5012371;28;20521;-71
2021/04/15 05:49:24;;;;;;;6.78;2.50;;;8.10;49.40;;;;;;5012168;28;20391;-71
2021/04/15 05:52:11;;;;;;;6.55;3.00;;;8.10;49.10;;;;;;5024711;28;20030;-70
2021/04/15 05:54:38;;;;;;;7.40;2.60;;;8.10;49.00;;;;;;5016692;28;20042;-70
2021/04/15 05:57:15;;;;;;;7.18;2.88;;;8.00;49.00;;;;;;5011351;28;20137;-71
2021/04/15 06:00:19;;;;;;;5.68;2.63;;;8.00;49.10;;;;;;5014597;28;20450;-70
2021/04/15 06:02:53;;;;;;;8.85;2.78;;;8.00;49.10;;;;;;5013486;28;20036;-70
2021/04/15 06:05:58;;;;;;;8.13;2.97;;;8.10;49.10;;;;;;5019967;28;20014;-70
2021/04/15 06:08:27;;;;;;;8.57;2.90;;;8.10;48.90;;;;;;5018810;28;20128;-70
2021/04/15 06:11:01;;;;;;;8.07;2.65;;;8.20;48.80;;;;;;5018517;28;20060;-70
2021/04/15 06:13:48;;;;;;;6.55;2.67;;;8.20;48.60;;;;;;5016555;28;20033;-70
2021/04/15 06:16:40;;;;;;;5.95;2.53;;;8.30;48.40;;;;;;5016582;28;20046;-70
2021/04/15 06:19:12;;;;;;;;;;;8.30;48.20;;;;;;5019935;28;20037;-70
2021/04/15 06:21:45;;;;;;;8.23;2.75;;;8.40;48.10;;;;;;5001727;28;19913;-70
2021/04/15 06:24:19;;;;;;;7.18;2.85;;;8.50;48.90;;;;;;5019149;28;20034;-70
2021/04/15 06:26:51;;;;;;;7.47;2.90;;;8.50;47.80;;;;;;5016704;28;20041;-70
2021/04/15 06:29:29;;;;;;;9.30;2.85;;;8.60;47.70;;;;;;5019671;28;20042;-70
2021/04/15 06:31:56;;;;;;;6.72;2.70;;;8.70;47.40;;;;;;5015959;28;20064;-70
2021/04/15 06:34:23;;;;;;;7.40;2.60;;;8.70;47.30;;;;;;5017347;28;20049;-70
2021/04/15 06:37:14;;;;;;;8.55;3.10;;;8.70;47.50;;;;;;5014505;28;20033;-69
2021/04/15 06:39:54;;;;;;;7.72;2.78;;;8.80;47.20;;;;;;4997845;28;20041;-70
2021/04/15 06:42:38;;;;;;;6.37;2.70;;;8.90;47.10;;;;;;5001170;28;20030;-70
2021/04/15 06:45:27;;;;;;;6.63;3.00;;;9.10;47.00;;;;;;5012001;28;20037;-70
2021/04/15 06:48:29;;;;;;;8.13;3.20;;;9.20;46.60;;;;;;5017232;28;20037;-70
2021/04/15 06:51:39;;;;;;;8.43;3.15;;;9.40;45.90;;;;;;5009295;28;20026;-70
2021/04/15 06:54:32;;;;;;;8.20;3.00;;;9.70;45.30;;;;;;5023954;28;20072;-70
2021/04/15 06:57:24;;;;;;;7.95;3.28;;;10.10;44.50;;;;;;5009953;28;20765;-70
2021/04/15 07:00:15;;;;;;;7.95;3.30;;;10.50;43.40;;;;;;4985318;28;20069;-70
2021/04/15 07:03:19;;;;;;;7.68;3.70;;;11.20;41.70;;;;;;5014004;28;20122;-70
2021/04/15 07:05:57;;;;;;;10.05;3.47;;;12.30;39.90;;;;;;4900298;29;20031;-66
2021/04/15 07:08:41;;;;;;;9.95;4.03;;;13.60;36.90;;;;;;4922916;29;20027;-72
2021/04/15 07:11:07;;;;;;;8.70;3.63;;;14.10;35.40;;;;;;4921688;29;20036;-67
2021/04/15 07:14:00;;;;;;;7.63;3.50;;;14.60;35.10;;;;;;4926844;29;20087;-68
2021/04/15 07:16:51;;;;;;;9.77;4.00;;;15.30;34.40;;;;;;4855587;29;20037;-66
2021/04/15 07:19:41;;;;;;;12.90;4.53;;;15.90;32.60;;;;;;4840170;29;20034;-67
2021/04/15 07:22:13;;;;;;;8.98;4.28;;;16.20;31.90;;;;;;4856141;29;20062;-67
2021/04/15 07:24:53;;;;;;;10.32;4.40;;;16.70;30.50;;;;;;4856092;29;20038;-67
2021/04/15 07:28:00;;;;;;;9.90;4.57;;;17.10;30.30;;;;;;4855822;29;20574;-67
2021/04/15 07:30:47;;;;;;;10.40;4.55;;;17.40;30.00;;;;;;4855602;29;20510;-67
2021/04/15 07:33:34;;;;;;;10.90;4.70;;;17.70;29.20;;;;;;4854531;29;20049;-67
2021/04/15 07:37:01;;;;;;;8.98;4.70;;;18.00;28.70;;;;;;4852183;29;20050;-67
2021/04/15 07:39:30;;;;;;;11.80;5.38;;;18.40;28.70;;;;;;4836810;29;20042;-66
2021/04/15 07:42:22;;;;;;;10.63;5.40;;;19.00;28.10;;;;;;4854309;29;20035;-68
2021/04/15 07:45:17;;;;;;;12.25;5.65;;;19.50;27.40;;;;;;4911747;29;20036;-67
2021/04/15 07:48:18;;;;;;;11.77;5.97;;;20.10;26.80;;;;;;4906518;29;20149;-67
2021/04/15 07:51:11;;;;;;;9.13;5.25;;;20.60;25.80;;;;;;4911803;29;20040;-67
2021/04/15 07:54:12;;;;;;;9.43;5.82;;;21.10;26.00;;;;;;4942622;28;20417;-67
2021/04/15 07:57:11;;;;;;;9.80;6.30;;;21.50;25.30;;;;;;4963828;28;20509;-67
2021/04/15 08:00:10;;;;;;;10.30;6.68;;;22.10;24.80;;;;;;4951603;28;20050;-67
2021/04/15 08:03:00;;;;;;;11.90;6.90;;;22.60;23.90;;;;;;4963078;28;20612;-67
2021/04/15 08:05:29;;;;;;;11.27;6.40;;;22.90;23.30;;;;;;4963755;28;20118;-67
2021/04/15 08:08:13;;;;;;;10.88;6.55;;;22.90;23.40;;;;;;4949795;28;20034;-67
2021/04/15 08:11:00;;;;;;;10.95;6.35;;;23.00;23.60;;;;;;4962699;28;20588;-67
2021/04/15 08:13:33;;;;;;;10.98;6.88;;;23.50;24.00;;;;;;4958290;28;20043;-67
2021/04/15 08:16:01;;;;;;;12.90;7.88;;;23.90;22.40;;;;;;4990312;28;20745;-67
2021/04/15 08:18:41;;;;;;;10.57;7.47;;;23.90;22.10;;;;;;5016872;28;20100;-67
2021/04/15 08:21:13;;;;;;;10.48;7.47;;;24.10;22.00;;;;;;5029199;28;20033;-67
2021/04/15 08:24:11;;;;;;;11.00;7.40;;;24.40;22.10;;;;;;5017088;28;20025;-68
2021/04/15 08:27:01;;;;;;;9.60;7.40;;;24.80;21.80;;;;;;5022519;28;20631;-67
2021/04/15 08:29:45;;;;;;;13.95;8.43;;;25.40;21.30;;;;;;5015029;28;20038;-68
2021/04/15 08:32:57;;;;;;;10.73;7.53;;;25.50;21.00;;;;;;5023731;28;20033;-68
2021/04/15 08:35:59;;;;;;;11.98;8.30;;;25.80;20.80;;;;;;5022050;28;20030;-68
2021/04/15 08:38:38;;;;;;;14.23;8.88;;;26.10;21.10;;;;;;5012053;28;20548;-68
2021/04/15 08:41:41;;;;;;;11.65;9.30;;;26.00;20.00;;;;;;5024048;28;20018;-69
2021/04/15 08:44:13;;;;;;;12.48;9.65;;;25.90;19.90;;;;;;5014809;28;20029;-69
2021/04/15 08:47:02;;;;;;;11.93;9.40;;;26.00;20.40;;;;;;5015318;28;20042;-68
2021/04/15 08:49:35;;;;;;;12.95;9.65;;;26.40;20.10;;;;;;5014601;28;20029;-68
2021/04/15 08:52:33;;;;;;;14.45;9.90;;;26.70;19.80;;;;;;5016027;28;20041;-69
2021/04/15 08:55:07;;;;;;;12.35;9.10;;;26.80;19.20;;;;;;5019862;28;20022;-69
2021/04/15 08:57:41;;;;;;;11.93;9.07;;;26.80;20.00;;;;;;5030898;28;20108;-69
2021/04/15 09:00:21;;;;;;;13.52;9.77;;;27.20;19.60;;;;;;5020153;28;20081;-68
2021/04/15 09:03:07;;;;;;;13.13;9.65;;;27.40;19.60;;;;;;5021181;28;20018;-68
2021/04/15 09:05:41;;;;;;;13.07;11.25;;;27.50;19.30;;;;;;5021525;28;20060;-68
2021/04/15 09:08:35;;;;;;;11.95;9.32;;;27.40;18.40;;;;;;5026994;28;20497;-68
2021/04/15 09:11:25;;;;;;;13.27;9.13;;;27.50;19.20;;;;;;5019928;28;20510;-68
2021/04/15 09:14:00;;;;;;;12.02;9.70;;;27.90;19.30;;;;;;5021478;28;20033;-68
2021/04/15 09:16:40;;;;;;;12.00;10.02;;;27.90;18.90;;;;;;5019731;28;20056;-68
2021/04/15 09:19:27;;;;;;;13.30;10.50;;;27.90;18.60;;;;;;5022257;28;20051;-68
2021/04/15 09:22:05;;;;;;;15.00;11.25;;;27.90;18.40;;;;;;5026454;28;20021;-68
2021/04/15 09:24:42;;;;;;;16.10;11.15;;;27.80;18.20;;;;;;5016121;28;20080;-68
2021/04/15 09:27:22;;;;;;;14.75;10.80;;;27.70;18.30;;;;;;5017209;28;20505;-68
2021/04/15 09:30:09;;;;;;;12.88;10.02;;;27.70;18.70;;;;;;5017285;28;20065;-68
2021/04/15 09:32:58;;;;;;;14.68;12.18;;;27.90;18.50;;;;;;5016472;28;20034;-68
2021/04/15 09:35:45;;;;;;;13.63;10.93;;;27.50;17.90;;;;;;5022427;28;20060;-68
2021/04/15 09:38:48;;;;;;;13.70;11.30;;;27.40;18.60;;;;;;5017061;28;20038;-68
2021/04/15 09:41:43;;;;;;;13.25;10.70;;;27.90;18.20;;;;;;5016858;28;20018;-68
2021/04/15 09:44:49;;;;;;;13.38;10.60;;;27.90;17.80;;;;;;5046232;28;20055;-68
2021/04/15 09:47:38;;;;;;;13.55;11.07;;;27.60;17.80;;;;;;5050069;28;20405;-68
2021/04/15 09:50:04;;;;;;;;;;;27.40;18.10;;;;;;5046796;28;20067;-68
2021/04/15 09:52:47;;;;;;;14.48;12.13;;;27.30;18.00;;;;;;5048694;28;20048;-68
2021/04/15 09:55:34;;;;;;;14.98;12.68;;;26.80;17.90;;;;;;5049923;28;20086;-68
2021/04/15 09:58:27;;;;;;;13.35;11.75;;;25.10;19.30;;;;;;5039878;28;20029;-68
2021/04/15 10:00:58;;;;;;;15.05;12.13;;;24.00;20.70;;;;;;5049699;28;20025;-68
2021/04/15 10:03:41;;;;;;;14.73;12.80;;;23.40;21.10;;;;;;5049232;28;20048;-68
2021/04/15 10:06:15;;;;;;;15.45;13.55;;;22.90;21.60;;;;;;5032803;28;20506;-68
2021/04/15 10:08:59;;;;;;;14.18;12.68;;;22.30;22.30;;;;;;5049471;28;20044;-68
2021/04/15 10:11:49;;;;;;;15.90;14.23;;;21.80;22.70;;;;;;5049005;28;20056;-67
2021/04/15 10:14:31;;;;;;;19.58;14.10;;;21.30;22.80;;;;;;5060261;28;20047;-67
2021/04/15 10:17:18;;;;;;;14.82;12.95;;;20.80;23.60;;;;;;5048362;28;20052;-67
2021/04/15 10:20:11;;;;;;;17.10;13.60;;;20.50;24.50;;;;;;5042351;28;20062;-68
2021/04/15 10:22:43;;;;;;;15.90;12.50;;;20.30;24.90;;;;;;5016976;28;20433;-68
2021/04/15 10:25:21;;;;;;;17.25;11.95;;;20.10;23.70;;;;;;4995973;28;20068;-68
2021/04/15 10:27:59;;;;;;;16.83;12.57;;;20.00;23.50;;;;;;4991513;28;20030;-67
2021/04/15 10:31:18;;;;;;;14.45;11.13;;;19.20;23.70;;;;;;4994553;28;20030;-70
2021/04/15 10:34:11;;;;;;;14.23;11.63;;;18.50;25.20;;;;;;5026417;28;20141;-66
2021/04/15 10:37:20;;;;;;;16.60;13.93;;;18.20;25.70;;;;;;5028325;28;20408;-66
2021/04/15 10:40:17;;;;;;;17.77;13.85;;;18.10;25.20;;;;;;5011449;28;20029;-66
2021/04/15 10:43:07;;;;;;;17.58;13.82;;;18.00;25.40;;;;;;5026924;28;20124;-66
2021/04/15 10:45:48;;;;;;;16.23;13.27;;;17.50;26.30;;;;;;5024055;28;20041;-67
2021/04/15 10:48:40;;;;;;;15.73;12.52;;;17.00;26.60;;;;;;5027134;28;20047;-68
2021/04/15 10:51:12;;;;;;;19.75;15.52;;;17.30;26.50;;;;;;5026421;28;20033;-67
2021/04/15 10:53:58;;;;;;;15.73;12.95;;;17.60;25.30;;;;;;5025312;28;20048;-67
2021/04/15 10:56:25;;;;;;;18.30;15.35;;;17.60;26.00;;;;;;5022900;28;20103;-67
2021/04/15 10:58:59;;;;;;;18.60;15.15;;;17.40;26.30;;;;;;5026686;28;20045;-67
2021/04/15 11:01:30;;;;;;;19.48;16.85;;;17.30;26.50;;;;;;5026333;28;20060;-67
2021/04/15 11:03:58;;;;;;;17.77;15.40;;;17.40;25.90;;;;;;5025256;28;20072;-66
2021/04/15 11:06:40;;;;;;;18.05;15.63;;;17.20;26.50;;;;;;5024597;28;20041;-67
2021/04/15 11:09:27;;;;;;;19.20;14.73;;;17.00;27.00;;;;;;5026094;28;20087;-68
2021/04/15 11:12:15;;;;;;;19.27;14.57;;;17.40;26.50;;;;;;4990703;28;20093;-68
2021/04/15 11:14:47;;;;;;;19.27;15.18;;;17.80;26.10;;;;;;4992269;28;20077;-68
2021/04/15 11:17:22;;;;;;;20.15;16.27;;;17.50;26.40;;;;;;4995643;28;20033;-68
2021/04/15 11:19:49;;;;;;;18.50;15.30;;;16.90;27.00;;;;;;5004684;28;20104;-67
2021/04/15 11:22:27;;;;;;;21.15;17.15;;;16.30;27.80;;;;;;5000055;28;20033;-67
2021/04/15 11:25:19;;;;;;;18.83;15.57;;;15.80;28.10;;;;;;4997875;28;20080;-68
2021/04/15 11:27:44;;;;;;;20.27;18.15;;;15.20;28.80;;;;;;4996562;28;20026;-68
2021/04/15 11:30:29;;;;;;;20.70;18.50;;;14.80;29.50;;;;;;5004736;28;20036;-67
2021/04/15 11:32:54;;;;;;;21.45;18.40;;;14.40;29.90;;;;;;5002001;28;20031;-67
2021/04/15 11:35:22;;;;;;;19.05;17.02;;;14.10;29.90;;;;;;4997976;28;20522;-67
2021/04/15 11:38:03;;;;;;;20.42;18.10;;;14.00;30.00;;;;;;4990781;28;20449;-68
2021/04/15 11:40:42;;;;;;;20.08;17.13;;;14.10;29.80;;;;;;4993290;28;20029;-67
2021/04/15 11:43:35;;;;;;;16.92;14.70;;;14.30;30.10;;;;;;4995755;28;20034;-67
2021/04/15 11:46:16;;;;;;;17.85;14.80;;;14.40;29.80;;;;;;4995774;28;20040;-67
2021/04/15 11:48:42;;;;;;;16.80;13.43;;;14.60;30.00;;;;;;5002454;28;20113;-67
2021/04/15 11:51:20;;;;;;;18.48;16.02;;;14.90;29.60;;;;;;4993053;28;20038;-67
2021/04/15 11:53:53;;;;;;;19.75;16.85;;;15.10;29.30;;;;;;4988527;28;20030;-68
2021/04/15 11:56:18;;;;;;;19.33;16.10;;;15.20;29.00;;;;;;4996096;28;20383;-67
2021/04/15 11:58:44;;;;;;;18.42;16.20;;;15.20;27.80;;;;;;4993967;28;20025;-67
2021/04/15 12:01:10;;;;;;;16.75;14.55;;;15.20;27.90;;;;;;4998477;28;20429;-67
2021/04/15 12:03:53;;;;;;;19.02;16.17;;;15.30;27.90;;;;;;4998306;28;20038;-67
2021/04/15 12:06:20;;;;;;;20.00;16.63;;;15.10;27.70;;;;;;5007426;28;20509;-67
2021/04/15 12:08:47;;;;;;;18.55;16.02;;;14.70;28.20;;;;;;5007054;28;20521;-66
2021/04/15 12:11:29;;;;;;;18.80;16.10;;;14.40;27.80;;;;;;5007235;28;20129;-67
2021/04/15 12:14:07;;;;;;;18.95;16.65;;;14.20;28.30;;;;;;4996970;28;20120;-67
2021/04/15 12:16:36;;;;;;;16.67;14.85;;;14.00;29.00;;;;;;4992623;28;20057;-67
2021/04/15 12:19:16;;;;;;;18.30;15.77;;;14.10;29.50;;;;;;4990797;28;20560;-67
2021/04/15 12:22:07;;;;;;;18.05;14.25;;;14.20;28.80;;;;;;4996634;28;20034;-67
2021/04/15 12:24:35;;;;;;;17.15;14.23;;;14.40;29.30;;;;;;4999502;28;20026;-67
2021/04/15 12:27:26;;;;;;;14.30;12.25;;;14.50;29.80;;;;;;4997147;28;20057;-67
2021/04/15 12:30:09;;;;;;;;;;;14.50;30.00;;;;;;4997388;28;20068;-67
2021/04/15 12:32:50;;;;;;;18.33;15.68;;;14.40;29.90;;;;;;5000076;28;19996;-67
2021/04/15 12:35:48;;;;;;;16.35;14.50;;;14.20;29.80;;;;;;5008767;28;20037;-67
2021/04/15 12:38:29;;;;;;;15.77;13.23;;;14.30;29.60;;;;;;4999213;28;20402;-67
2021/04/15 12:40:59;;;;;;;;;;;14.40;29.30;;;;;;4997472;28;20034;-67
2021/04/15 12:43:28;;;;;;;17.02;14.60;;;14.30;28.30;;;;;;4997440;28;19964;-67
2021/04/15 12:46:18;;;;;;;17.63;14.20;;;14.10;28.30;;;;;;5001991;28;20030;-67
2021/04/15 12:49:03;;;;;;;17.90;13.82;;;14.00;28.70;;;;;;4999120;28;20054;-67
2021/04/15 12:51:37;;;;;;;15.57;13.18;;;14.10;29.10;;;;;;4998515;28;20038;-67
2021/04/15 12:54:16;;;;;;;17.15;14.18;;;14.20;29.50;;;;;;5000348;28;20029;-67
2021/04/15 12:56:51;;;;;;;15.20;12.50;;;14.10;29.10;;;;;;4996850;28;20045;-67
2021/04/15 12:59:26;;;;;;;15.05;11.32;;;14.20;29.30;;;;;;5007045;28;20441;-67
2021/04/15 13:01:53;;;;;;;14.38;11.82;;;14.30;28.80;;;;;;5004531;28;20109;-67
2021/04/15 13:04:40;;;;;;;15.88;10.57;;;14.30;28.10;;;;;;5000973;28;20022;-67
2021/04/15 13:07:11;;;;;;;16.35;12.57;;;14.20;28.30;;;;;;5002834;28;20042;-66
2021/04/15 13:09:44;;;;;;;14.90;12.93;;;14.30;28.30;;;;;;5006469;28;20026;-67
2021/04/15 13:12:19;;;;;;;15.40;12.32;;;14.40;28.40;;;;;;5004582;28;20142;-67
2021/04/15 13:14:47;;;;;;;15.88;12.00;;;14.50;28.50;;;;;;5003145;28;20034;-67
2021/04/15 13:17:36;;;;;;;15.95;12.45;;;14.40;28.20;;;;;;5005209;28;20026;-67
2021/04/15 13:20:33;;;;;;;17.00;11.90;;;14.30;28.60;;;;;;5002120;28;20026;-68
2021/04/15 13:23:07;;;;;;;16.58;12.55;;;14.10;28.80;;;;;;5001605;28;20033;-67
2021/04/15 13:25:35;;;;;;;14.88;11.90;;;14.00;27.70;;;;;;5005003;28;20569;-67
2021/04/15 13:28:04;;;;;;;14.30;11.63;;;14.10;27.90;;;;;;5001381;28;20027;-67
2021/04/15 13:30:41;;;;;;;14.77;11.95;;;14.10;28.00;;;;;;4995471;28;20041;-67
2021/04/15 13:33:20;;;;;;;14.65;10.82;;;14.20;27.60;;;;;;5001658;28;20033;-67
2021/04/15 13:35:53;;;;;;;17.15;12.18;;;14.30;28.30;;;;;;4998798;28;20044;-66
2021/04/15 13:41:25;;;;;;;12.35;10.05;;;14.10;27.90;;;;;;5009726;28;20037;-67
2021/04/15 13:43:58;;;;;;;14.07;10.40;;;13.90;28.30;;;;;;5013071;28;20037;-67
2021/04/15 13:46:24;;;;;;;12.32;9.35;;;13.90;27.70;;;;;;5012172;28;20030;-67
2021/04/15 13:49:20;;;;;;;12.48;9.38;;;13.90;27.80;;;;;;5013812;28;20072;-67
2021/04/15 13:51:48;;;;;;;12.30;8.85;;;14.00;27.40;;;;;;4997740;28;20102;-67